sensor_id;sensor_type;location;lat;lon;timestamp;pressure;altitude;pressure_sealevel;temperature;humidity
55733;BME280;41637;52.364;9.910;2022-10-22T00:01:35;100275.66;;;13.63;100.00
55733;BME280;41637;52.364;9.910;2022-10-22T00:04:03;100282.30;;;13.61;100.00
55733;BME280;41637;52.364;9.910;2022-10-22T00:06:30;100285.83;;;13.59;100.00
55733;BME280;41637;52.364;9.910;2022-10-22T00:08:57;100287.97;;;13.56;100.00
55733;BME280;41637;52.364;9.910;2022-10-22T00:11:23;100282.14;;;13.53;100.00
55733;BME280;41637;52.364;9.910;2022-10-22T00:13:50;100280.83;;;13.51;100.00
55733;BME280;41637;52.364;9.910;2022-10-22T00:16:17;100280.14;;;13.50;100.00
55733;BME280;41637;52.364;9.910;2022-10-22T00:18:43;100279.47;;;13.49;100.00
55733;BME280;41637;52.364;9.910;2022-10-22T00:21:10;100282.63;;;13.48;100.00
55733;BME280;41637;52.364;9.910;2022-10-22T00:23:41;100295.45;;;13.46;100.00
55733;BME280;41637;52.364;9.910;2022-10-22T00:26:08;100301.36;;;13.44;100.00
55733;BME280;41637;52.364;9.910;2022-10-22T00:28:38;100306.97;;;13.42;100.00
55733;BME280;41637;52.364;9.910;2022-10-22T00:31:05;100303.90;;;13.41;100.00
55733;BME280;41637;52.364;9.910;2022-10-22T00:33:31;100302.50;;;13.40;100.00
55733;BME280;41637;52.364;9.910;2022-10-22T00:35:59;100304.02;;;13.39;100.00
55733;BME280;41637;52.364;9.910;2022-10-22T00:38:25;100306.11;;;13.40;100.00
55733;BME280;41637;52.364;9.910;2022-10-22T00:40:52;100297.30;;;13.40;100.00
55733;BME280;41637;52.364;9.910;2022-10-22T00:43:19;100288.23;;;13.40;100.00
55733;BME280;41637;52.364;9.910;2022-10-22T00:45:48;100283.61;;;13.40;100.00
55733;BME280;41637;52.364;9.910;2022-10-22T00:48:19;100282.11;;;13.41;100.00
55733;BME280;41637;52.364;9.910;2022-10-22T00:50:58;100283.61;;;13.42;100.00
55733;BME280;41637;52.364;9.910;2022-10-22T00:53:45;100293.45;;;13.44;100.00
55733;BME280;41637;52.364;9.910;2022-10-22T00:56:13;100297.02;;;13.44;100.00
55733;BME280;41637;52.364;9.910;2022-10-22T00:58:47;100298.83;;;13.42;100.00
55733;BME280;41637;52.364;9.910;2022-10-22T01:01:22;100302.21;;;13.38;100.00
55733;BME280;41637;52.364;9.910;2022-10-22T01:03:51;100295.97;;;13.33;100.00
55733;BME280;41637;52.364;9.910;2022-10-22T01:06:23;100295.27;;;13.30;100.00
55733;BME280;41637;52.364;9.910;2022-10-22T01:17:08;100307.56;;;13.20;100.00
55733;BME280;41637;52.364;9.910;2022-10-22T01:22:41;100293.58;;;13.16;100.00
55733;BME280;41637;52.364;9.910;2022-10-22T01:25:26;100287.96;;;13.15;100.00
55733;BME280;41637;52.364;9.910;2022-10-22T01:30:26;100288.33;;;13.15;100.00
55733;BME280;41637;52.364;9.910;2022-10-22T01:32:55;100292.02;;;13.14;100.00
55733;BME280;41637;52.364;9.910;2022-10-22T01:35:28;100293.11;;;13.13;100.00
55733;BME280;41637;52.364;9.910;2022-10-22T01:37:58;100292.42;;;13.13;100.00
55733;BME280;41637;52.364;9.910;2022-10-22T01:40:27;100302.17;;;13.13;100.00
55733;BME280;41637;52.364;9.910;2022-10-22T01:45:22;100305.08;;;13.12;100.00
55733;BME280;41637;52.364;9.910;2022-10-22T01:47:59;100304.92;;;13.13;100.00
55733;BME280;41637;52.364;9.910;2022-10-22T01:53:13;100297.23;;;13.18;100.00
55733;BME280;41637;52.364;9.910;2022-10-22T01:55:54;100296.99;;;13.21;100.00
55733;BME280;41637;52.364;9.910;2022-10-22T02:01:02;100285.00;;;13.27;100.00
55733;BME280;41637;52.364;9.910;2022-10-22T02:03:39;100279.48;;;13.30;100.00
55733;BME280;41637;52.364;9.910;2022-10-22T02:06:13;100267.20;;;13.30;100.00
55733;BME280;41637;52.364;9.910;2022-10-22T02:08:42;100261.17;;;13.30;100.00
55733;BME280;41637;52.364;9.910;2022-10-22T02:11:11;100268.73;;;13.31;100.00
55733;BME280;41637;52.364;9.910;2022-10-22T02:13:42;100275.52;;;13.32;100.00
55733;BME280;41637;52.364;9.910;2022-10-22T02:16:14;100277.69;;;13.32;100.00
55733;BME280;41637;52.364;9.910;2022-10-22T02:18:44;100283.51;;;13.30;100.00
55733;BME280;41637;52.364;9.910;2022-10-22T02:21:12;100284.78;;;13.27;100.00
55733;BME280;41637;52.364;9.910;2022-10-22T02:23:39;100284.22;;;13.26;100.00
55733;BME280;41637;52.364;9.910;2022-10-22T02:26:10;100280.61;;;13.24;100.00
55733;BME280;41637;52.364;9.910;2022-10-22T02:28:55;100278.80;;;13.23;100.00
55733;BME280;41637;52.364;9.910;2022-10-22T02:31:27;100275.89;;;13.22;100.00
55733;BME280;41637;52.364;9.910;2022-10-22T02:34:00;100277.33;;;13.21;100.00
55733;BME280;41637;52.364;9.910;2022-10-22T02:36:30;100286.34;;;13.20;100.00
55733;BME280;41637;52.364;9.910;2022-10-22T02:38:58;100286.51;;;13.20;100.00
55733;BME280;41637;52.364;9.910;2022-10-22T02:41:25;100278.68;;;13.20;100.00
55733;BME280;41637;52.364;9.910;2022-10-22T02:43:53;100279.54;;;13.20;100.00
55733;BME280;41637;52.364;9.910;2022-10-22T02:46:20;100278.55;;;13.21;100.00
55733;BME280;41637;52.364;9.910;2022-10-22T02:48:47;100282.56;;;13.21;100.00
55733;BME280;41637;52.364;9.910;2022-10-22T02:51:15;100286.77;;;13.22;100.00
55733;BME280;41637;52.364;9.910;2022-10-22T02:53:41;100285.69;;;13.23;100.00
55733;BME280;41637;52.364;9.910;2022-10-22T02:56:08;100284.21;;;13.25;100.00
55733;BME280;41637;52.364;9.910;2022-10-22T02:58:35;100289.02;;;13.26;100.00
55733;BME280;41637;52.364;9.910;2022-10-22T03:01:04;100299.27;;;13.27;100.00
55733;BME280;41637;52.364;9.910;2022-10-22T03:03:31;100304.05;;;13.26;100.00
55733;BME280;41637;52.364;9.910;2022-10-22T03:05:57;100308.11;;;13.27;100.00
55733;BME280;41637;52.364;9.910;2022-10-22T03:08:23;100314.71;;;13.27;100.00
55733;BME280;41637;52.364;9.910;2022-10-22T03:10:50;100314.38;;;13.26;100.00
55733;BME280;41637;52.364;9.910;2022-10-22T03:13:17;100315.77;;;13.28;100.00
55733;BME280;41637;52.364;9.910;2022-10-22T03:15:43;100315.52;;;13.29;100.00
55733;BME280;41637;52.364;9.910;2022-10-22T03:18:10;100316.95;;;13.30;100.00
55733;BME280;41637;52.364;9.910;2022-10-22T03:20:36;100314.26;;;13.31;100.00
55733;BME280;41637;52.364;9.910;2022-10-22T03:23:03;100310.98;;;13.31;100.00
55733;BME280;41637;52.364;9.910;2022-10-22T03:25:30;100309.24;;;13.32;100.00
55733;BME280;41637;52.364;9.910;2022-10-22T03:28:04;100310.39;;;13.31;100.00
55733;BME280;41637;52.364;9.910;2022-10-22T03:30:33;100308.35;;;13.30;100.00
55733;BME280;41637;52.364;9.910;2022-10-22T03:33:01;100309.73;;;13.30;100.00
55733;BME280;41637;52.364;9.910;2022-10-22T03:35:28;100313.25;;;13.29;100.00
55733;BME280;41637;52.364;9.910;2022-10-22T03:37:59;100310.41;;;13.27;100.00
55733;BME280;41637;52.364;9.910;2022-10-22T03:40:26;100308.88;;;13.25;100.00
55733;BME280;41637;52.364;9.910;2022-10-22T03:42:52;100310.64;;;13.25;100.00
55733;BME280;41637;52.364;9.910;2022-10-22T03:45:19;100314.46;;;13.26;100.00
55733;BME280;41637;52.364;9.910;2022-10-22T03:47:45;100310.78;;;13.26;100.00
55733;BME280;41637;52.364;9.910;2022-10-22T03:50:12;100315.16;;;13.26;100.00
55733;BME280;41637;52.364;9.910;2022-10-22T03:52:38;100318.97;;;13.25;100.00
55733;BME280;41637;52.364;9.910;2022-10-22T03:55:06;100319.59;;;13.26;100.00
55733;BME280;41637;52.364;9.910;2022-10-22T03:57:32;100320.89;;;13.25;100.00
55733;BME280;41637;52.364;9.910;2022-10-22T03:59:59;100328.80;;;13.25;100.00
55733;BME280;41637;52.364;9.910;2022-10-22T04:02:26;100335.11;;;13.24;100.00
55733;BME280;41637;52.364;9.910;2022-10-22T04:04:52;100341.30;;;13.23;100.00
55733;BME280;41637;52.364;9.910;2022-10-22T04:07:19;100344.11;;;13.21;100.00
55733;BME280;41637;52.364;9.910;2022-10-22T04:09:45;100343.13;;;13.19;100.00
55733;BME280;41637;52.364;9.910;2022-10-22T04:12:13;100340.44;;;13.16;100.00
55733;BME280;41637;52.364;9.910;2022-10-22T04:14:40;100341.04;;;13.16;100.00
55733;BME280;41637;52.364;9.910;2022-10-22T04:17:06;100340.61;;;13.16;100.00
55733;BME280;41637;52.364;9.910;2022-10-22T04:19:33;100344.55;;;13.14;100.00
55733;BME280;41637;52.364;9.910;2022-10-22T04:22:02;100344.95;;;13.14;100.00
55733;BME280;41637;52.364;9.910;2022-10-22T04:24:30;100341.46;;;13.14;100.00
55733;BME280;41637;52.364;9.910;2022-10-22T04:26:57;100349.30;;;13.15;100.00
55733;BME280;41637;52.364;9.910;2022-10-22T04:29:25;100341.60;;;13.17;100.00
55733;BME280;41637;52.364;9.910;2022-10-22T04:31:51;100340.88;;;13.18;100.00
55733;BME280;41637;52.364;9.910;2022-10-22T04:34:18;100342.19;;;13.19;100.00
55733;BME280;41637;52.364;9.910;2022-10-22T04:36:44;100344.73;;;13.20;100.00
55733;BME280;41637;52.364;9.910;2022-10-22T04:39:11;100353.09;;;13.20;100.00
55733;BME280;41637;52.364;9.910;2022-10-22T04:41:38;100358.64;;;13.19;100.00
55733;BME280;41637;52.364;9.910;2022-10-22T04:44:05;100362.62;;;13.19;100.00
55733;BME280;41637;52.364;9.910;2022-10-22T04:46:33;100362.75;;;13.18;100.00
55733;BME280;41637;52.364;9.910;2022-10-22T04:49:00;100365.86;;;13.17;100.00
55733;BME280;41637;52.364;9.910;2022-10-22T04:51:29;100367.09;;;13.17;100.00
55733;BME280;41637;52.364;9.910;2022-10-22T04:53:55;100371.43;;;13.17;100.00
55733;BME280;41637;52.364;9.910;2022-10-22T04:56:24;100371.85;;;13.16;100.00
55733;BME280;41637;52.364;9.910;2022-10-22T04:58:53;100367.61;;;13.16;100.00
55733;BME280;41637;52.364;9.910;2022-10-22T05:01:23;100357.83;;;13.16;100.00
55733;BME280;41637;52.364;9.910;2022-10-22T05:03:51;100358.94;;;13.16;100.00
55733;BME280;41637;52.364;9.910;2022-10-22T05:06:19;100365.23;;;13.15;100.00
55733;BME280;41637;52.364;9.910;2022-10-22T05:08:52;100364.17;;;13.15;100.00
55733;BME280;41637;52.364;9.910;2022-10-22T05:11:22;100363.06;;;13.17;100.00
55733;BME280;41637;52.364;9.910;2022-10-22T05:13:49;100368.32;;;13.17;100.00
55733;BME280;41637;52.364;9.910;2022-10-22T05:16:16;100363.89;;;13.17;100.00
55733;BME280;41637;52.364;9.910;2022-10-22T05:18:43;100363.76;;;13.14;100.00
55733;BME280;41637;52.364;9.910;2022-10-22T05:21:21;100366.81;;;13.10;100.00
55733;BME280;41637;52.364;9.910;2022-10-22T05:23:48;100371.64;;;13.04;100.00
55733;BME280;41637;52.364;9.910;2022-10-22T05:26:18;100375.71;;;13.01;100.00
55733;BME280;41637;52.364;9.910;2022-10-22T05:28:45;100373.33;;;12.99;100.00
55733;BME280;41637;52.364;9.910;2022-10-22T05:31:12;100370.21;;;12.96;100.00
55733;BME280;41637;52.364;9.910;2022-10-22T05:33:40;100375.08;;;12.94;100.00
55733;BME280;41637;52.364;9.910;2022-10-22T05:36:07;100387.20;;;12.92;100.00
55733;BME280;41637;52.364;9.910;2022-10-22T05:38:35;100392.80;;;12.90;100.00
55733;BME280;41637;52.364;9.910;2022-10-22T05:41:08;100389.34;;;12.88;100.00
55733;BME280;41637;52.364;9.910;2022-10-22T05:43:35;100383.11;;;12.87;100.00
55733;BME280;41637;52.364;9.910;2022-10-22T05:46:04;100383.85;;;12.87;100.00
55733;BME280;41637;52.364;9.910;2022-10-22T05:48:31;100388.02;;;12.86;100.00
55733;BME280;41637;52.364;9.910;2022-10-22T05:51:01;100392.55;;;12.85;100.00
55733;BME280;41637;52.364;9.910;2022-10-22T05:53:31;100389.36;;;12.85;100.00
55733;BME280;41637;52.364;9.910;2022-10-22T05:56:03;100387.31;;;12.84;100.00
55733;BME280;41637;52.364;9.910;2022-10-22T05:58:30;100388.55;;;12.84;100.00
55733;BME280;41637;52.364;9.910;2022-10-22T06:01:03;100397.10;;;12.84;100.00
55733;BME280;41637;52.364;9.910;2022-10-22T06:03:30;100397.83;;;12.84;100.00
55733;BME280;41637;52.364;9.910;2022-10-22T06:08:53;100408.64;;;12.83;100.00
55733;BME280;41637;52.364;9.910;2022-10-22T06:11:21;100415.23;;;12.81;100.00
55733;BME280;41637;52.364;9.910;2022-10-22T06:13:49;100413.61;;;12.78;100.00
55733;BME280;41637;52.364;9.910;2022-10-22T06:16:16;100413.94;;;12.77;100.00
55733;BME280;41637;52.364;9.910;2022-10-22T06:18:43;100418.61;;;12.77;100.00
55733;BME280;41637;52.364;9.910;2022-10-22T06:21:12;100417.20;;;12.77;100.00
55733;BME280;41637;52.364;9.910;2022-10-22T06:23:41;100418.89;;;12.77;100.00
55733;BME280;41637;52.364;9.910;2022-10-22T06:26:08;100424.55;;;12.76;100.00
55733;BME280;41637;52.364;9.910;2022-10-22T06:28:35;100424.29;;;12.75;100.00
55733;BME280;41637;52.364;9.910;2022-10-22T06:31:02;100430.25;;;12.79;100.00
55733;BME280;41637;52.364;9.910;2022-10-22T06:33:31;100433.63;;;12.83;100.00
55733;BME280;41637;52.364;9.910;2022-10-22T06:36:24;100436.55;;;12.87;100.00
55733;BME280;41637;52.364;9.910;2022-10-22T06:38:52;100439.98;;;12.90;100.00
55733;BME280;41637;52.364;9.910;2022-10-22T06:41:20;100440.08;;;12.94;100.00
55733;BME280;41637;52.364;9.910;2022-10-22T06:43:52;100444.02;;;12.97;100.00
55733;BME280;41637;52.364;9.910;2022-10-22T06:46:20;100449.94;;;13.01;100.00
55733;BME280;41637;52.364;9.910;2022-10-22T06:48:55;100456.84;;;13.04;100.00
55733;BME280;41637;52.364;9.910;2022-10-22T06:51:22;100458.82;;;13.05;100.00
55733;BME280;41637;52.364;9.910;2022-10-22T06:53:48;100462.66;;;13.09;100.00
55733;BME280;41637;52.364;9.910;2022-10-22T06:56:17;100463.23;;;13.14;100.00
55733;BME280;41637;52.364;9.910;2022-10-22T06:58:48;100470.85;;;13.20;100.00
55733;BME280;41637;52.364;9.910;2022-10-22T07:01:18;100478.54;;;13.23;100.00
55733;BME280;41637;52.364;9.910;2022-10-22T07:03:45;100477.47;;;13.23;100.00
55733;BME280;41637;52.364;9.910;2022-10-22T07:06:13;100477.36;;;13.24;100.00
55733;BME280;41637;52.364;9.910;2022-10-22T07:08:40;100480.92;;;13.25;100.00
55733;BME280;41637;52.364;9.910;2022-10-22T07:11:13;100486.60;;;13.28;100.00
55733;BME280;41637;52.364;9.910;2022-10-22T07:13:40;100493.52;;;13.31;100.00
55733;BME280;41637;52.364;9.910;2022-10-22T07:16:07;100498.40;;;13.31;100.00
55733;BME280;41637;52.364;9.910;2022-10-22T07:18:35;100500.39;;;13.29;100.00
55733;BME280;41637;52.364;9.910;2022-10-22T07:21:03;100499.30;;;13.28;100.00
55733;BME280;41637;52.364;9.910;2022-10-22T07:23:30;100501.38;;;13.28;100.00
55733;BME280;41637;52.364;9.910;2022-10-22T07:25:57;100503.64;;;13.30;100.00
55733;BME280;41637;52.364;9.910;2022-10-22T07:28:27;100495.95;;;13.33;100.00
55733;BME280;41637;52.364;9.910;2022-10-22T07:30:53;100504.36;;;13.36;100.00
55733;BME280;41637;52.364;9.910;2022-10-22T07:33:20;100508.45;;;13.42;100.00
55733;BME280;41637;52.364;9.910;2022-10-22T07:35:46;100508.27;;;13.49;100.00
55733;BME280;41637;52.364;9.910;2022-10-22T07:38:13;100507.48;;;13.59;100.00
55733;BME280;41637;52.364;9.910;2022-10-22T07:40:40;100512.62;;;13.70;100.00
55733;BME280;41637;52.364;9.910;2022-10-22T07:43:06;100514.34;;;13.80;100.00
55733;BME280;41637;52.364;9.910;2022-10-22T07:45:32;100507.71;;;13.92;100.00
55733;BME280;41637;52.364;9.910;2022-10-22T07:47:59;100509.51;;;14.01;100.00
55733;BME280;41637;52.364;9.910;2022-10-22T07:50:26;100511.05;;;14.11;100.00
55733;BME280;41637;52.364;9.910;2022-10-22T07:52:52;100514.54;;;14.18;100.00
55733;BME280;41637;52.364;9.910;2022-10-22T07:55:22;100514.84;;;14.25;100.00
55733;BME280;41637;52.364;9.910;2022-10-22T07:57:49;100515.43;;;14.33;100.00
55733;BME280;41637;52.364;9.910;2022-10-22T08:00:16;100517.20;;;14.45;100.00
55733;BME280;41637;52.364;9.910;2022-10-22T08:02:48;100511.10;;;14.55;100.00
55733;BME280;41637;52.364;9.910;2022-10-22T08:05:14;100515.75;;;14.65;100.00
55733;BME280;41637;52.364;9.910;2022-10-22T08:07:41;100513.27;;;14.75;100.00
55733;BME280;41637;52.364;9.910;2022-10-22T08:10:09;100519.42;;;14.84;100.00
55733;BME280;41637;52.364;9.910;2022-10-22T08:12:36;100516.45;;;14.96;100.00
55733;BME280;41637;52.364;9.910;2022-10-22T08:15:04;100518.36;;;15.05;99.98
55733;BME280;41637;52.364;9.910;2022-10-22T08:17:31;100527.20;;;15.12;99.90
55733;BME280;41637;52.364;9.910;2022-10-22T08:19:57;100527.66;;;15.22;99.76
55733;BME280;41637;52.364;9.910;2022-10-22T08:22:24;100538.42;;;15.27;98.44
55733;BME280;41637;52.364;9.910;2022-10-22T08:24:51;100542.54;;;15.36;98.57
55733;BME280;41637;52.364;9.910;2022-10-22T08:27:18;100542.46;;;15.47;98.70
55733;BME280;41637;52.364;9.910;2022-10-22T08:29:45;100540.93;;;15.55;97.49
55733;BME280;41637;52.364;9.910;2022-10-22T08:32:12;100545.10;;;15.61;97.34
55733;BME280;41637;52.364;9.910;2022-10-22T08:34:38;100543.38;;;15.69;97.01
55733;BME280;41637;52.364;9.910;2022-10-22T08:37:05;100545.03;;;15.74;95.87
55733;BME280;41637;52.364;9.910;2022-10-22T08:39:33;100541.91;;;15.81;95.67
55733;BME280;41637;52.364;9.910;2022-10-22T08:49:53;100549.29;;;16.18;94.18
55733;BME280;41637;52.364;9.910;2022-10-22T08:52:20;100544.92;;;16.25;93.76
55733;BME280;41637;52.364;9.910;2022-10-22T08:54:55;100542.79;;;16.36;93.87
55733;BME280;41637;52.364;9.910;2022-10-22T09:02:55;100535.76;;;16.41;90.90
55733;BME280;41637;52.364;9.910;2022-10-22T09:08:18;100534.49;;;16.54;90.30
55733;BME280;41637;52.364;9.910;2022-10-22T09:10:49;100540.55;;;16.59;89.59
55733;BME280;41637;52.364;9.910;2022-10-22T09:13:19;100548.44;;;16.63;89.00
55733;BME280;41637;52.364;9.910;2022-10-22T09:16:17;100549.36;;;16.72;89.45
55733;BME280;41637;52.364;9.910;2022-10-22T09:18:53;100544.58;;;16.76;88.35
55733;BME280;41637;52.364;9.910;2022-10-22T09:24:16;100546.98;;;16.92;87.95
55733;BME280;41637;52.364;9.910;2022-10-22T09:26:44;100551.39;;;16.95;87.08
55733;BME280;41637;52.364;9.910;2022-10-22T09:29:19;100556.02;;;17.00;87.04
55733;BME280;41637;52.364;9.910;2022-10-22T09:31:49;100550.25;;;17.08;86.19
55733;BME280;41637;52.364;9.910;2022-10-22T09:34:20;100551.77;;;17.16;86.09
55733;BME280;41637;52.364;9.910;2022-10-22T09:36:46;100545.55;;;17.25;85.94
55733;BME280;41637;52.364;9.910;2022-10-22T09:39:27;100552.83;;;17.33;85.80
55733;BME280;41637;52.364;9.910;2022-10-22T09:41:54;100555.77;;;17.48;86.08
55733;BME280;41637;52.364;9.910;2022-10-22T09:44:21;100557.23;;;17.60;85.81
55733;BME280;41637;52.364;9.910;2022-10-22T09:46:48;100555.22;;;17.72;85.54
55733;BME280;41637;52.364;9.910;2022-10-22T09:49:17;100563.08;;;17.83;84.70
55733;BME280;41637;52.364;9.910;2022-10-22T09:51:55;100565.30;;;17.92;83.90
55733;BME280;41637;52.364;9.910;2022-10-22T09:56:57;100575.42;;;18.03;82.34
55733;BME280;41637;52.364;9.910;2022-10-22T09:59:30;100580.79;;;18.13;82.13
55733;BME280;41637;52.364;9.910;2022-10-22T10:02:21;100581.88;;;18.26;82.44
55733;BME280;41637;52.364;9.910;2022-10-22T10:05:04;100581.50;;;18.49;82.43
55733;BME280;41637;52.364;9.910;2022-10-22T10:07:33;100583.68;;;18.57;80.39
55733;BME280;41637;52.364;9.910;2022-10-22T10:10:20;100579.91;;;18.65;80.24
55733;BME280;41637;52.364;9.910;2022-10-22T10:12:57;100587.85;;;18.75;80.45
55733;BME280;41637;52.364;9.910;2022-10-22T10:15:37;100588.02;;;18.88;80.13
55733;BME280;41637;52.364;9.910;2022-10-22T10:18:21;100595.11;;;18.97;78.23
55733;BME280;41637;52.364;9.910;2022-10-22T10:24:04;100596.50;;;18.98;77.26
55733;BME280;41637;52.364;9.910;2022-10-22T10:26:45;100595.25;;;19.05;76.35
55733;BME280;41637;52.364;9.910;2022-10-22T10:32:14;100594.35;;;19.25;76.15
55733;BME280;41637;52.364;9.910;2022-10-22T10:35:03;100593.63;;;19.36;75.88
55733;BME280;41637;52.364;9.910;2022-10-22T10:37:40;100602.45;;;19.44;75.62
55733;BME280;41637;52.364;9.910;2022-10-22T10:43:17;100595.87;;;19.68;75.38
55733;BME280;41637;52.364;9.910;2022-10-22T10:56:44;100606.70;;;19.73;70.51
55733;BME280;41637;52.364;9.910;2022-10-22T11:02:09;100602.23;;;19.48;71.79
55733;BME280;41637;52.364;9.910;2022-10-22T11:04:50;100608.21;;;19.59;72.24
55733;BME280;41637;52.364;9.910;2022-10-22T11:07:26;100618.67;;;19.57;71.30
55733;BME280;41637;52.364;9.910;2022-10-22T11:10:33;100626.64;;;19.40;71.43
55733;BME280;41637;52.364;9.910;2022-10-22T11:16:11;100626.17;;;19.28;72.38
55733;BME280;41637;52.364;9.910;2022-10-22T11:19:04;100621.19;;;19.25;72.88
55733;BME280;41637;52.364;9.910;2022-10-22T11:21:52;100625.23;;;19.23;73.10
55733;BME280;41637;52.364;9.910;2022-10-22T11:24:23;100629.70;;;19.18;73.39
55733;BME280;41637;52.364;9.910;2022-10-22T11:26:56;100627.30;;;19.12;73.46
55733;BME280;41637;52.364;9.910;2022-10-22T11:29:35;100624.27;;;19.09;73.76
55733;BME280;41637;52.364;9.910;2022-10-22T11:32:13;100628.71;;;19.12;73.70
55733;BME280;41637;52.364;9.910;2022-10-22T11:34:57;100626.15;;;19.18;73.28
55733;BME280;41637;52.364;9.910;2022-10-22T11:37:27;100627.23;;;19.25;72.85
55733;BME280;41637;52.364;9.910;2022-10-22T11:42:51;100624.22;;;19.69;71.68
55733;BME280;41637;52.364;9.910;2022-10-22T11:56:04;100619.55;;;21.58;66.17
55733;BME280;41637;52.364;9.910;2022-10-22T11:58:46;100623.91;;;22.43;61.50
55733;BME280;41637;52.364;9.910;2022-10-22T12:01:28;100618.09;;;23.16;58.68
55733;BME280;41637;52.364;9.910;2022-10-22T12:06:51;100619.46;;;23.10;57.18
55733;BME280;41637;52.364;9.910;2022-10-22T12:09:18;100621.41;;;22.65;57.55
55733;BME280;41637;52.364;9.910;2022-10-22T12:11:48;100624.64;;;22.45;58.05
55733;BME280;41637;52.364;9.910;2022-10-22T12:14:21;100623.21;;;22.86;57.36
55733;BME280;41637;52.364;9.910;2022-10-22T12:16:58;100617.10;;;23.70;55.41
55733;BME280;41637;52.364;9.910;2022-10-22T12:19:37;100615.73;;;23.57;54.37
55733;BME280;41637;52.364;9.910;2022-10-22T12:22:23;100616.61;;;23.13;55.33
55733;BME280;41637;52.364;9.910;2022-10-22T12:24:53;100610.50;;;23.12;55.77
55733;BME280;41637;52.364;9.910;2022-10-22T12:27:33;100606.76;;;23.27;55.71
55733;BME280;41637;52.364;9.910;2022-10-22T12:30:01;100611.02;;;23.46;54.99
55733;BME280;41637;52.364;9.910;2022-10-22T12:32:33;100604.55;;;23.71;54.42
55733;BME280;41637;52.364;9.910;2022-10-22T12:35:05;100609.31;;;24.55;50.81
55733;BME280;41637;52.364;9.910;2022-10-22T12:37:36;100607.37;;;25.52;48.21
55733;BME280;41637;52.364;9.910;2022-10-22T12:40:33;100606.17;;;26.35;46.14
55733;BME280;41637;52.364;9.910;2022-10-22T12:43:09;100603.47;;;26.65;44.90
55733;BME280;41637;52.364;9.910;2022-10-22T12:45:36;100606.92;;;26.58;44.75
55733;BME280;41637;52.364;9.910;2022-10-22T12:48:06;100608.14;;;27.03;43.60
55733;BME280;41637;52.364;9.910;2022-10-22T12:50:57;100604.49;;;26.71;44.14
55733;BME280;41637;52.364;9.910;2022-10-22T12:53:34;100608.85;;;25.67;45.89
55733;BME280;41637;52.364;9.910;2022-10-22T12:56:05;100617.15;;;24.87;47.70
55733;BME280;41637;52.364;9.910;2022-10-22T12:58:45;100614.55;;;24.11;49.49
55733;BME280;41637;52.364;9.910;2022-10-22T13:01:14;100612.35;;;23.50;51.17
55733;BME280;41637;52.364;9.910;2022-10-22T13:03:44;100606.75;;;23.18;52.22
55733;BME280;41637;52.364;9.910;2022-10-22T13:08:44;100601.73;;;22.88;54.21
55733;BME280;41637;52.364;9.910;2022-10-22T13:11:20;100607.30;;;22.58;55.07
55733;BME280;41637;52.364;9.910;2022-10-22T13:13:46;100615.05;;;22.38;55.54
55733;BME280;41637;52.364;9.910;2022-10-22T13:16:21;100617.10;;;22.03;55.71
55733;BME280;41637;52.364;9.910;2022-10-22T13:18:53;100608.87;;;21.78;56.76
55733;BME280;41637;52.364;9.910;2022-10-22T13:21:31;100607.20;;;21.65;57.64
55733;BME280;41637;52.364;9.910;2022-10-22T13:24:47;100615.66;;;21.37;58.42
55733;BME280;41637;52.364;9.910;2022-10-22T13:26:56;100608.90;;;21.13;59.32
55733;BME280;41637;52.364;9.910;2022-10-22T13:29:23;100610.73;;;20.96;59.18
55733;BME280;41637;52.364;9.910;2022-10-22T13:31:51;100619.48;;;20.77;59.35
55733;BME280;41637;52.364;9.910;2022-10-22T13:34:20;100616.66;;;20.51;60.15
55733;BME280;41637;52.364;9.910;2022-10-22T13:36:47;100618.73;;;20.32;61.37
55733;BME280;41637;52.364;9.910;2022-10-22T13:39:23;100627.40;;;20.11;61.93
55733;BME280;41637;52.364;9.910;2022-10-22T13:41:50;100627.16;;;19.91;62.72
55733;BME280;41637;52.364;9.910;2022-10-22T13:44:17;100629.64;;;19.76;63.04
55733;BME280;41637;52.364;9.910;2022-10-22T13:46:45;100625.67;;;19.76;62.72
55733;BME280;41637;52.364;9.910;2022-10-22T13:49:15;100638.61;;;19.63;64.26
55733;BME280;41637;52.364;9.910;2022-10-22T13:51:46;100642.02;;;19.47;66.60
55733;BME280;41637;52.364;9.910;2022-10-22T13:54:21;100647.20;;;19.17;69.84
55733;BME280;41637;52.364;9.910;2022-10-22T13:56:48;100655.27;;;18.85;70.92
55733;BME280;41637;52.364;9.910;2022-10-22T13:59:15;100649.92;;;18.58;73.18
55733;BME280;41637;52.364;9.910;2022-10-22T14:01:51;100649.11;;;18.37;74.26
55733;BME280;41637;52.364;9.910;2022-10-22T14:04:17;100651.80;;;18.24;73.81
55733;BME280;41637;52.364;9.910;2022-10-22T14:06:44;100650.40;;;18.10;73.12
55733;BME280;41637;52.364;9.910;2022-10-22T14:09:13;100648.10;;;17.99;73.08
55733;BME280;41637;52.364;9.910;2022-10-22T14:11:41;100648.73;;;17.95;73.10
55733;BME280;41637;52.364;9.910;2022-10-22T14:14:08;100654.22;;;17.95;72.89
55733;BME280;41637;52.364;9.910;2022-10-22T14:16:36;100650.73;;;18.03;72.01
55733;BME280;41637;52.364;9.910;2022-10-22T14:19:05;100653.85;;;18.16;71.06
55733;BME280;41637;52.364;9.910;2022-10-22T14:21:35;100650.17;;;18.37;68.96
55733;BME280;41637;52.364;9.910;2022-10-22T14:24:02;100649.04;;;19.25;66.88
55733;BME280;41637;52.364;9.910;2022-10-22T14:26:33;100646.81;;;20.48;63.19
55733;BME280;41637;52.364;9.910;2022-10-22T14:29:00;100641.16;;;21.61;58.42
55733;BME280;41637;52.364;9.910;2022-10-22T14:31:36;100645.61;;;22.10;56.02